Time;durP1;ratioP1;P1;durP2;ratioP2;P2;SDS_P1;SDS_P2;PMS_P1;PMS_P2;Temp;Humidity;BMP_temperature;BMP_pressure;BME280_temperature;BME280_humidity;BME280_pressure;Samples;Min_cycle;Max_cycle;Signal;HPM_P1;HPM_P2
2021/11/28 00:01:25;;;;;;;9.75;3.35;;;5.40;99.90;;;4.68;91.06;100364.16;4152099;28;20034;-71
2021/11/28 00:03:26;;;;;;;8.85;3.67;;;5.40;99.90;;;4.63;90.43;100374.97;4167694;28;20038;-72
2021/11/28 00:05:28;;;;;;;8.63;2.70;;;5.40;99.90;;;4.69;89.71;100382.31;4184710;28;20025;-71
2021/11/28 00:07:44;;;;;;;11.80;4.60;;;5.40;99.90;;;4.64;89.60;100373.22;4156493;28;20021;-71
2021/11/28 00:12:24;;;;;;;12.85;4.20;;;5.40;99.90;;;4.51;90.18;100375.19;4165078;28;20064;-71
2021/11/28 00:14:25;;;;;;;15.88;3.83;;;5.40;99.90;;;4.64;88.71;100397.56;4169484;28;20021;-71
2021/11/28 00:16:25;;;;;;;8.48;2.75;;;5.30;99.90;;;4.55;90.29;100389.63;4184472;28;20055;-72
2021/11/28 00:18:28;;;;;;;7.70;3.15;;;5.30;99.90;;;4.56;89.71;100376.47;4169012;28;20026;-73
2021/11/28 00:20:29;;;;;;;8.90;3.55;;;5.30;99.90;;;4.58;90.33;100385.00;4168817;28;20081;-73
2021/11/28 00:22:30;;;;;;;9.45;2.92;;;5.30;99.90;;;4.45;90.43;100377.34;4165663;28;20061;-73
2021/11/28 00:24:32;;;;;;;11.20;3.00;;;5.20;99.90;;;4.52;90.68;100392.50;4168378;28;20060;-73
2021/11/28 00:26:33;;;;;;;10.52;3.03;;;5.30;99.90;;;4.50;89.51;100392.63;4166307;28;20480;-73
2021/11/28 00:28:34;;;;;;;13.43;3.17;;;5.20;99.90;;;4.54;89.34;100391.41;4168425;28;20021;-73
2021/11/28 00:30:35;;;;;;;9.43;2.47;;;5.20;99.90;;;4.58;88.08;100394.59;4185011;28;20047;-73
2021/11/28 00:32:37;;;;;;;8.20;2.92;;;5.20;99.90;;;4.49;90.90;100390.97;4161425;28;20029;-73
2021/11/28 00:34:38;;;;;;;8.63;2.65;;;5.30;99.90;;;4.67;88.41;100388.63;4166260;28;20111;-73
2021/11/28 00:36:39;;;;;;;6.65;2.65;;;5.20;99.90;;;4.65;87.80;100393.16;4168197;28;20165;-73
2021/11/28 00:38:40;;;;;;;14.25;3.50;;;5.30;99.90;;;4.58;88.63;100392.81;4159441;28;20484;-73
2021/11/28 00:40:41;;;;;;;7.38;2.67;;;5.40;99.90;;;4.65;88.80;100391.38;4168176;28;20029;-73
2021/11/28 00:42:42;;;;;;;9.65;2.70;;;5.40;99.90;;;4.50;90.27;100378.75;4169468;28;20610;-73
2021/11/28 00:44:44;;;;;;;9.38;3.10;;;5.30;99.90;;;4.62;89.37;100393.41;4169398;28;20524;-73
2021/11/28 00:46:44;;;;;;;8.05;3.10;;;5.40;99.90;;;4.76;88.24;100400.94;4167681;28;20065;-73
2021/11/28 00:48:45;;;;;;;8.52;3.08;;;5.40;99.90;;;4.77;87.98;100407.81;4168353;28;20029;-73
2021/11/28 00:50:48;;;;;;;7.25;3.10;;;5.40;99.90;;;4.78;87.68;100402.44;4169521;28;20092;-73
2021/11/28 00:52:50;;;;;;;11.00;4.07;;;5.40;99.90;;;4.78;87.51;100397.22;4169267;28;20030;-73
2021/11/28 00:54:51;;;;;;;9.77;3.15;;;5.40;99.90;;;4.68;87.73;100401.56;4167974;28;20109;-73
2021/11/28 00:56:52;;;;;;;12.30;3.40;;;5.30;99.90;;;4.50;88.35;100403.09;4168440;28;20021;-73
2021/11/28 00:58:53;;;;;;;10.07;2.88;;;5.30;99.90;;;4.58;88.73;100398.06;4168120;28;20029;-73
2021/11/28 01:00:54;;;;;;;6.70;3.10;;;5.30;99.90;;;4.59;88.08;100393.66;4167949;28;20068;-73
2021/11/28 01:02:55;;;;;;;8.98;3.00;;;5.20;99.90;;;4.69;87.18;100390.16;4168760;28;20042;-73
2021/11/28 01:04:57;;;;;;;8.43;3.58;;;5.20;99.90;;;4.72;86.88;100394.31;4169159;28;20029;-73
2021/11/28 01:06:58;;;;;;;11.68;4.38;;;5.20;99.90;;;4.74;86.37;100387.16;4168027;28;20566;-73
2021/11/28 01:08:59;;;;;;;7.50;2.67;;;5.20;99.90;;;4.70;85.58;100394.44;4151446;28;20022;-73
2021/11/28 01:11:00;;;;;;;6.60;2.83;;;5.20;99.90;;;4.53;86.73;100392.38;4157003;28;20053;-73
2021/11/28 01:13:01;;;;;;;11.43;4.70;;;5.10;99.90;;;4.48;86.63;100390.13;4160517;28;20399;-73
2021/11/28 01:15:05;;;;;;;10.15;3.30;;;5.10;99.90;;;4.42;85.60;100384.63;4169100;28;20083;-73
2021/11/28 01:17:07;;;;;;;16.77;3.85;;;5.00;99.90;;;4.34;85.98;100381.78;4168997;28;20025;-73
2021/11/28 01:19:08;;;;;;;10.30;3.83;;;5.00;99.90;;;4.19;87.03;100380.41;4167874;28;20033;-73
2021/11/28 01:21:09;;;;;;;17.98;3.88;;;4.90;99.90;;;4.43;86.80;100384.47;4161639;28;20026;-73
2021/11/28 01:23:10;;;;;;;10.00;4.47;;;4.80;99.90;;;4.03;87.80;100380.00;4167646;28;20025;-73
2021/11/28 01:25:13;;;;;;;9.98;3.38;;;4.80;99.90;;;4.14;87.20;100382.56;4166433;28;20059;-73
2021/11/28 01:27:15;;;;;;;9.20;3.27;;;4.70;99.90;;;4.26;86.19;100384.19;4167769;28;20104;-73
2021/11/28 01:29:16;;;;;;;11.23;3.58;;;4.60;99.90;;;4.16;86.54;100378.88;4160414;28;20319;-73
2021/11/28 01:31:17;;;;;;;10.63;3.08;;;4.70;99.90;;;4.05;87.14;100389.38;4164804;28;20045;-73
2021/11/28 01:33:18;;;;;;;8.13;2.75;;;4.70;99.90;;;4.35;85.94;100376.44;4168788;28;20506;-73
2021/11/28 01:35:19;;;;;;;11.95;3.72;;;4.70;99.90;;;4.42;84.10;100364.53;4168807;28;20064;-73
2021/11/28 01:37:20;;;;;;;16.85;4.60;;;4.70;99.90;;;4.33;84.04;100367.88;4167544;28;20037;-73
2021/11/28 01:39:22;;;;;;;14.05;3.75;;;5.00;99.90;;;4.42;83.67;100372.34;4184031;28;20036;-73
2021/11/28 01:41:24;;;;;;;7.95;3.83;;;4.80;99.90;;;4.28;84.06;100380.50;4166227;28;20029;-73
2021/11/28 01:43:25;;;;;;;8.40;3.20;;;4.80;99.90;;;4.23;85.18;100368.78;4156405;28;20116;-73
2021/11/28 01:45:31;;;;;;;8.00;2.75;;;4.70;99.90;;;4.26;83.60;100381.59;4168646;28;20076;-73
2021/11/28 01:47:32;;;;;;;9.65;3.33;;;4.70;99.90;;;4.33;84.44;100382.75;4167218;28;20021;-73
2021/11/28 01:49:33;;;;;;;6.15;2.70;;;4.70;99.90;;;4.32;83.55;100381.91;4167187;28;20025;-73
2021/11/28 01:51:35;;;;;;;8.05;2.88;;;4.80;99.90;;;4.34;83.76;100384.38;4156332;28;20014;-73
2021/11/28 01:53:36;;;;;;;11.57;2.30;;;4.80;99.90;;;4.23;83.30;100385.28;4167217;28;20033;-73
2021/11/28 01:55:38;;;;;;;12.68;2.92;;;4.70;99.90;;;4.20;84.15;100375.09;4167120;28;20551;-73
2021/11/28 01:57:39;;;;;;;7.93;2.70;;;4.80;99.90;;;4.20;83.60;100372.47;4167063;28;20095;-73
2021/11/28 01:59:40;;;;;;;8.70;2.92;;;4.60;99.90;;;4.23;83.97;100387.88;4168584;28;20035;-73
2021/11/28 02:01:42;;;;;;;4.28;2.08;;;4.60;99.90;;;4.26;84.11;100390.25;4167034;28;20033;-73
2021/11/28 02:03:45;;;;;;;5.57;2.20;;;4.60;99.90;;;4.38;82.62;100388.41;4167058;28;20049;-73
2021/11/28 02:05:51;;;;;;;6.05;3.38;;;4.60;99.90;;;4.32;82.98;100384.53;4167091;28;20032;-73
2021/11/28 02:07:52;;;;;;;9.88;2.92;;;4.70;99.90;;;4.38;81.66;100391.03;4162194;28;20389;-73
2021/11/28 02:09:53;;;;;;;4.30;2.30;;;4.60;99.90;;;4.07;82.50;100387.44;4160441;28;20033;-73
2021/11/28 02:11:54;;;;;;;12.55;2.80;;;4.60;99.90;;;4.13;82.84;100399.19;4167251;28;20079;-73
2021/11/28 02:13:55;;;;;;;7.40;2.97;;;4.60;99.90;;;4.16;82.89;100406.75;4167195;28;20053;-73
2021/11/28 02:15:56;;;;;;;9.48;2.72;;;4.60;99.90;;;4.08;83.51;100414.38;4167141;28;20033;-73
2021/11/28 02:17:58;;;;;;;9.13;2.70;;;4.50;99.90;;;4.17;82.82;100400.59;4167380;28;20037;-73
2021/11/28 02:19:59;;;;;;;5.30;2.35;;;4.50;99.90;;;3.97;83.06;100407.44;4167138;28;20085;-73
2021/11/28 02:22:00;;;;;;;8.57;2.90;;;4.50;99.90;;;4.09;82.42;100414.25;4167036;28;20061;-73
2021/11/28 02:24:01;;;;;;;7.97;2.83;;;4.50;99.90;;;3.89;82.55;100422.84;4156642;28;20064;-73
2021/11/28 02:26:06;;;;;;;12.07;2.40;;;4.40;99.90;;;4.10;82.88;100417.69;4168061;28;20079;-73
2021/11/28 02:28:08;;;;;;;6.13;2.40;;;4.40;99.90;;;3.84;82.36;100409.34;4167089;28;20022;-73
2021/11/28 02:30:11;;;;;;;7.82;2.33;;;4.40;99.90;;;4.01;81.65;100419.25;4168367;28;20458;-73
2021/11/28 02:32:12;;;;;;;3.88;2.22;;;4.30;99.90;;;3.87;82.69;100415.16;4168353;28;20021;-73
2021/11/28 02:34:13;;;;;;;6.85;2.50;;;4.00;99.90;;;3.60;83.88;100417.31;4167129;28;20038;-73
2021/11/28 02:36:14;;;;;;;7.30;2.20;;;4.30;99.90;;;3.65;85.10;100423.00;4167083;28;20035;-73
2021/11/28 02:38:15;;;;;;;10.35;2.65;;;4.10;99.90;;;3.90;83.01;100421.91;4167099;28;20505;-73
2021/11/28 02:40:22;;;;;;;8.13;2.97;;;4.10;99.90;;;3.71;83.16;100411.25;4168002;28;20087;-73
2021/11/28 02:42:24;;;;;;;6.25;2.70;;;4.10;99.90;;;3.42;85.09;100416.13;4167011;28;20033;-73
2021/11/28 02:44:26;;;;;;;6.45;2.75;;;4.10;99.90;;;3.23;86.24;100416.69;4168078;28;20017;-73
2021/11/28 02:46:27;;;;;;;6.20;2.58;;;4.00;99.90;;;3.40;85.36;100423.25;4150730;28;20030;-73
2021/11/28 02:48:29;;;;;;;6.70;3.15;;;4.10;99.90;;;3.38;85.63;100419.91;4168179;28;20365;-73
2021/11/28 02:50:30;;;;;;;7.72;4.00;;;3.90;99.90;;;3.23;86.00;100411.50;4168409;28;20033;-73
2021/11/28 02:52:31;;;;;;;3.90;2.53;;;4.50;99.90;;;3.03;87.00;100414.78;4166974;28;20037;-73
2021/11/28 02:54:32;;;;;;;7.95;2.80;;;3.80;99.90;;;3.06;87.72;100421.53;4166986;28;20108;-73
2021/11/28 02:56:34;;;;;;;9.60;4.35;;;3.70;99.90;;;3.27;85.45;100418.13;4168182;28;20030;-73
2021/11/28 02:58:36;;;;;;;4.28;2.58;;;3.70;99.90;;;3.24;85.54;100418.38;4168071;28;20075;-73
2021/11/28 03:00:43;;;;;;;13.73;2.70;;;3.80;99.90;;;3.60;84.57;100424.31;4167990;28;20026;-73
2021/11/28 03:02:44;;;;;;;4.97;2.13;;;3.70;99.90;;;3.64;83.33;100413.53;4166657;28;20073;-73
2021/11/28 03:04:45;;;;;;;6.20;2.53;;;3.80;99.90;;;3.33;83.63;100417.66;4168107;28;20040;-73
2021/11/28 03:06:46;;;;;;;9.32;2.60;;;3.90;99.90;;;3.38;83.73;100408.66;4168033;28;20068;-73
2021/11/28 03:08:47;;;;;;;6.30;2.28;;;3.90;99.90;;;3.30;84.82;100410.09;4154793;28;20088;-73
2021/11/28 03:10:55;;;;;;;11.77;3.08;;;3.90;99.90;;;3.13;85.07;100415.75;4169674;28;20045;-73
2021/11/28 03:12:56;;;;;;;11.55;3.58;;;3.80;99.90;;;3.08;85.06;100407.44;4171070;28;20488;-73
2021/11/28 03:14:57;;;;;;;10.57;2.72;;;3.80;99.90;;;2.94;85.52;100414.66;4153258;28;20107;-73
2021/11/28 03:16:58;;;;;;;7.00;2.33;;;3.70;99.90;;;3.03;85.57;100406.13;4169693;28;20037;-73
2021/11/28 03:18:59;;;;;;;14.85;3.75;;;3.70;99.90;;;2.94;85.93;100418.09;4170943;28;20072;-73
2021/11/28 03:21:14;;;;;;;7.07;2.72;;;3.70;99.90;;;3.16;84.35;100412.94;4169662;28;20602;-73
2021/11/28 03:23:16;;;;;;;;;;;3.60;99.90;;;3.31;83.59;100413.53;4170090;28;20034;-73
2021/11/28 03:25:20;;;;;;;6.80;2.60;;;3.60;99.90;;;3.15;83.83;100413.88;4202314;28;19944;-73
2021/11/28 03:27:20;;;;;;;8.85;2.65;;;3.60;99.90;;;3.03;84.20;100409.59;4169601;28;20036;-73
2021/11/28 03:29:24;;;;;;;10.05;2.88;;;3.70;99.90;;;3.05;84.68;100417.25;4163334;28;20037;-73
2021/11/28 03:31:30;;;;;;;10.90;2.55;;;3.60;99.90;;;3.07;84.43;100416.22;4169470;28;20021;-73
2021/11/28 03:33:32;;;;;;;6.78;1.95;;;3.50;99.90;;;3.08;83.75;100417.88;4185653;28;20060;-73
2021/11/28 03:35:33;;;;;;;5.28;2.03;;;3.60;99.90;;;3.15;82.66;100419.06;4159751;28;20025;-73
2021/11/28 03:37:34;;;;;;;6.18;2.20;;;3.60;99.90;;;3.20;82.91;100422.16;4163024;28;20443;-73
2021/11/28 03:39:35;;;;;;;4.40;2.38;;;3.60;99.90;;;3.03;83.42;100427.81;4169051;28;20022;-73
2021/11/28 03:41:36;;;;;;;5.18;2.70;;;3.60;99.90;;;3.26;82.09;100429.50;4189180;28;20028;-73
2021/11/28 03:43:38;;;;;;;6.35;2.35;;;3.60;99.90;;;2.91;83.04;100433.13;4169374;28;20034;-73
2021/11/28 03:45:39;;;;;;;4.15;2.03;;;3.60;99.90;;;3.05;83.01;100428.53;4162739;28;20061;-73
2021/11/28 03:47:40;;;;;;;7.32;2.83;;;3.50;99.90;;;3.07;83.26;100426.66;4166148;28;20029;-73
2021/11/28 03:49:41;;;;;;;6.72;2.20;;;3.60;99.90;;;3.03;82.27;100430.41;4169398;28;20033;-73
2021/11/28 03:51:42;;;;;;;6.72;3.17;;;3.60;99.90;;;3.12;83.27;100434.94;4169281;28;20104;-73
2021/11/28 03:53:44;;;;;;;5.65;2.47;;;3.50;99.90;;;3.24;82.24;100435.78;4169217;28;20033;-73
2021/11/28 03:55:46;;;;;;;8.50;3.08;;;3.60;99.90;;;3.04;82.55;100433.88;4165672;28;20076;-73
2021/11/28 03:57:47;;;;;;;4.93;2.33;;;3.60;99.90;;;3.12;82.69;100442.75;4169179;28;20034;-73
2021/11/28 03:59:47;;;;;;;6.75;2.20;;;3.60;99.90;;;3.19;82.34;100435.31;4169120;28;20096;-73
2021/11/28 04:01:48;;;;;;;6.65;2.35;;;3.60;99.90;;;3.26;81.32;100439.94;4169053;28;20025;-73
2021/11/28 04:03:50;;;;;;;5.45;2.60;;;3.60;99.90;;;3.20;80.64;100442.16;4169936;28;20038;-73
2021/11/28 04:05:53;;;;;;;6.03;2.15;;;3.60;99.90;;;2.96;80.76;100439.63;4169003;28;20087;-73
2021/11/28 04:07:54;;;;;;;5.45;2.10;;;3.60;99.90;;;3.09;80.85;100442.16;4162262;28;20025;-73
2021/11/28 04:09:55;;;;;;;5.07;2.65;;;3.70;99.90;;;2.95;81.67;100445.81;4163277;28;20116;-73
2021/11/28 04:11:56;;;;;;;6.60;2.13;;;3.60;99.90;;;2.86;81.06;100441.28;4170046;28;20045;-73
2021/11/28 04:13:57;;;;;;;6.95;2.45;;;3.60;99.90;;;2.86;81.90;100430.03;4170031;28;20064;-73
2021/11/28 04:15:58;;;;;;;5.93;2.55;;;3.50;99.90;;;2.91;81.33;100440.94;4170018;28;20503;-73
2021/11/28 04:17:59;;;;;;;5.28;1.73;;;3.50;99.90;;;2.77;81.62;100444.56;4168847;28;20091;-73
2021/11/28 04:20:01;;;;;;;6.07;2.30;;;3.50;99.90;;;2.95;81.03;100445.81;4169870;28;20404;-73
2021/11/28 04:22:03;;;;;;;6.57;2.38;;;3.50;99.90;;;2.90;80.24;100440.09;4168648;28;20045;-73
2021/11/28 04:24:04;;;;;;;7.00;2.70;;;3.40;99.90;;;2.82;81.13;100432.03;4157981;28;20112;-73
2021/11/28 04:26:05;;;;;;;8.38;2.53;;;3.40;99.90;;;3.10;79.28;100420.38;4168459;28;20022;-73
2021/11/28 04:28:07;;;;;;;5.95;2.22;;;3.50;99.90;;;3.21;79.16;100431.63;4168488;28;20456;-73
2021/11/28 04:30:11;;;;;;;6.18;3.22;;;3.50;99.90;;;3.08;79.26;100428.28;4169061;28;20029;-73
2021/11/28 04:32:12;;;;;;;5.13;2.10;;;3.60;99.90;;;3.06;80.09;100429.34;4168477;28;20059;-73
2021/11/28 04:34:13;;;;;;;5.50;1.88;;;3.60;99.90;;;2.85;80.27;100439.63;4162962;28;20041;-73
2021/11/28 04:36:14;;;;;;;7.30;2.17;;;3.60;99.90;;;3.02;80.30;100444.38;4169764;28;20061;-73
2021/11/28 04:38:15;;;;;;;6.50;2.10;;;3.50;99.90;;;2.70;81.11;100438.16;4168342;28;20495;-73
2021/11/28 04:40:17;;;;;;;5.97;2.30;;;3.50;99.90;;;2.55;81.93;100440.09;4168139;28;20044;-73
2021/11/28 04:42:18;;;;;;;4.65;2.35;;;3.50;99.90;;;2.77;80.59;100449.78;4161645;28;20029;-73
2021/11/28 04:44:22;;;;;;;4.35;2.00;;;3.40;99.90;;;3.07;80.27;100451.88;4164774;28;20025;-73
2021/11/28 04:46:23;;;;;;;6.72;2.28;;;3.40;99.90;;;3.09;79.31;100445.59;4168203;28;20037;-73
2021/11/28 04:48:24;;;;;;;7.63;2.97;;;3.50;99.90;;;3.14;78.54;100459.09;4159507;28;20112;-73
2021/11/28 04:50:25;;;;;;;11.32;2.72;;;3.60;99.90;;;3.19;77.99;100462.22;4168248;28;20025;-73
2021/11/28 04:52:26;;;;;;;7.65;2.60;;;3.70;99.90;;;2.96;79.09;100455.25;4184661;28;20055;-73
2021/11/28 04:54:27;;;;;;;8.40;2.05;;;3.70;99.90;;;3.28;79.17;100468.50;4168615;28;20075;-73
2021/11/28 04:56:28;;;;;;;5.43;2.03;;;3.70;99.90;;;3.38;78.70;100459.00;4169433;28;20025;-73
2021/11/28 04:58:29;;;;;;;4.18;2.00;;;3.70;99.90;;;3.44;77.81;100473.34;4169478;28;20026;-73
2021/11/28 05:00:31;;;;;;;2.97;1.90;;;3.70;99.90;;;3.28;77.27;100471.94;4169289;28;20073;-73
2021/11/28 05:02:31;;;;;;;9.40;2.55;;;3.70;99.90;;;3.23;77.83;100466.22;4168811;28;20054;-73
2021/11/28 05:04:33;;;;;;;4.68;2.33;;;3.70;99.90;;;3.20;78.11;100471.66;4169531;28;20021;-73
2021/11/28 05:06:34;;;;;;;6.88;2.17;;;3.80;99.90;;;3.28;78.01;100468.50;4169224;28;20112;-73
2021/11/28 05:08:35;;;;;;;7.43;2.65;;;3.80;99.90;;;3.26;78.24;100468.59;4168040;28;20021;-73
2021/11/28 05:10:36;;;;;;;6.30;2.38;;;3.80;99.90;;;3.39;76.89;100463.28;4167776;28;20083;-73
2021/11/28 05:12:37;;;;;;;7.90;2.25;;;3.80;99.90;;;3.40;77.88;100445.88;4169136;28;20108;-73
2021/11/28 05:14:38;;;;;;;3.92;2.42;;;3.80;99.90;;;3.31;77.53;100466.50;4167819;28;20037;-73
2021/11/28 05:16:40;;;;;;;4.38;1.90;;;3.80;99.90;;;3.38;77.32;100461.63;4184415;28;20017;-73
2021/11/28 05:18:41;;;;;;;3.85;2.95;;;3.80;99.90;;;3.42;77.07;100463.06;4167609;28;20500;-73
2021/11/28 05:20:42;;;;;;;6.18;2.30;;;3.80;99.90;;;3.11;77.62;100454.13;4169107;28;20036;-73
2021/11/28 05:22:43;;;;;;;7.25;1.80;;;3.80;99.90;;;3.25;77.86;100456.53;4168743;28;20083;-73
2021/11/28 05:24:46;;;;;;;9.23;2.40;;;3.70;99.90;;;3.29;76.89;100450.13;4168766;28;20451;-73
2021/11/28 05:26:47;;;;;;;6.72;2.67;;;3.70;99.90;;;3.21;77.25;100454.25;4167558;28;20033;-73
2021/11/28 05:28:48;;;;;;;4.47;2.47;;;3.80;99.90;;;3.13;77.91;100467.88;4184456;28;20525;-73
2021/11/28 05:30:49;;;;;;;5.97;2.35;;;3.70;99.90;;;2.87;78.25;100458.56;4159442;28;20029;-73
2021/11/28 05:32:50;;;;;;;7.82;3.20;;;3.60;99.90;;;3.20;77.25;100469.06;4163558;28;20085;-73
2021/11/28 05:34:51;;;;;;;6.10;2.88;;;3.70;99.90;;;3.33;76.63;100461.16;4167570;28;20029;-73
2021/11/28 05:36:52;;;;;;;5.72;2.63;;;3.60;99.90;;;3.11;77.60;100467.16;4184227;28;20268;-73
2021/11/28 05:38:53;;;;;;;8.55;2.72;;;3.60;99.90;;;3.12;78.54;100475.78;4160628;28;20045;-73
2021/11/28 05:40:54;;;;;;;5.68;2.55;;;3.60;99.90;;;2.87;78.23;100465.56;4168543;28;20095;-73
2021/11/28 05:42:56;;;;;;;6.32;3.25;;;3.60;99.90;;;2.89;78.57;100472.31;4167304;28;20083;-73
2021/11/28 05:44:57;;;;;;;6.00;2.50;;;3.50;99.90;;;2.67;79.55;100467.84;4157019;28;20485;-73
2021/11/28 05:46:57;;;;;;;6.20;2.67;;;3.40;99.90;;;2.95;79.01;100465.81;4167602;28;20033;-73
2021/11/28 05:48:58;;;;;;;7.78;2.38;;;3.40;99.90;;;2.72;78.58;100470.94;4183700;28;20110;-73
2021/11/28 05:51:00;;;;;;;5.18;2.53;;;3.40;99.90;;;2.96;77.40;100473.50;4166397;28;20045;-73
2021/11/28 05:53:00;;;;;;;5.18;2.83;;;3.40;99.90;;;2.92;78.59;100473.84;4167545;28;20040;-73
2021/11/28 05:55:04;;;;;;;4.03;3.22;;;3.40;99.90;;;2.95;78.63;100479.69;4159706;28;20029;-73
2021/11/28 05:57:05;;;;;;;5.03;3.47;;;3.50;99.90;;;2.99;77.56;100473.28;4167267;28;20083;-73
2021/11/28 05:59:06;;;;;;;11.52;2.50;;;3.40;99.90;;;2.93;78.70;100483.34;4166483;28;20034;-73
2021/11/28 06:01:07;;;;;;;7.40;3.08;;;3.40;99.90;;;2.99;78.12;100481.09;4168630;28;20029;-73
2021/11/28 06:03:08;;;;;;;6.25;2.83;;;3.50;99.90;;;2.72;78.95;100489.16;4167151;28;20050;-73
2021/11/28 06:05:10;;;;;;;10.60;2.40;;;3.50;99.90;;;2.80;78.76;100478.22;4163219;28;20108;-73
2021/11/28 06:07:11;;;;;;;6.75;2.70;;;3.30;99.90;;;3.01;77.98;100489.66;4168294;28;20025;-73
2021/11/28 06:09:12;;;;;;;5.82;2.55;;;3.40;99.90;;;3.16;76.81;100495.47;4168596;28;20083;-73
2021/11/28 06:11:13;;;;;;;5.22;2.40;;;3.40;99.90;;;2.91;77.65;100493.03;4168492;28;20116;-73
2021/11/28 06:13:14;;;;;;;6.63;2.75;;;2.90;99.90;;;3.00;78.10;100498.41;4150760;28;20068;-73
2021/11/28 06:15:15;;;;;;;7.80;2.33;;;3.40;99.90;;;3.09;77.82;100496.88;4164574;28;20025;-73
2021/11/28 06:17:16;;;;;;;5.00;2.65;;;3.50;99.90;;;3.19;77.62;100508.28;4154922;28;20152;-73
2021/11/28 06:19:17;;;;;;;8.73;3.30;;;3.50;99.90;;;3.10;76.74;100503.75;4200314;28;20025;-73
2021/11/28 06:21:18;;;;;;;7.78;3.05;;;3.50;99.90;;;3.24;76.30;100509.59;4167038;28;20037;-73
2021/11/28 06:23:19;;;;;;;5.28;2.40;;;3.60;99.90;;;2.98;77.67;100507.28;4150513;28;20072;-73
2021/11/28 06:25:20;;;;;;;3.80;2.40;;;3.00;99.90;;;2.93;77.91;100505.00;4150574;28;20025;-73
2021/11/28 06:27:21;;;;;;;4.78;2.22;;;3.50;99.90;;;2.94;77.65;100508.44;4157837;28;20029;-73
2021/11/28 06:29:22;;;;;;;5.20;2.53;;;3.40;99.90;;;2.89;78.20;100494.94;4167065;28;20029;-73
2021/11/28 06:31:23;;;;;;;4.75;2.88;;;3.40;99.90;;;2.83;78.77;100508.41;4165509;28;20053;-73
2021/11/28 06:33:24;;;;;;;5.63;3.70;;;3.50;99.90;;;2.93;78.81;100512.81;4168236;28;20084;-73
2021/11/28 06:35:25;;;;;;;6.93;2.75;;;3.40;99.90;;;3.04;77.55;100507.66;4168262;28;20029;-73
2021/11/28 06:37:26;;;;;;;8.15;3.53;;;3.40;99.90;;;2.82;78.22;100517.97;4168159;28;20378;-73
2021/11/28 06:39:27;;;;;;;7.70;3.40;;;3.40;99.90;;;2.87;79.00;100523.69;4166658;28;20108;-73
2021/11/28 06:41:28;;;;;;;7.97;3.10;;;3.40;99.90;;;2.98;77.61;100528.13;4168549;28;20033;-73
2021/11/28 06:43:29;;;;;;;10.27;3.40;;;4.30;99.90;;;2.79;77.87;100524.25;4166844;28;20053;-73
2021/11/28 06:45:30;;;;;;;8.65;3.53;;;3.40;99.90;;;2.62;79.71;100529.03;4184756;28;20027;-73
2021/11/28 06:47:31;;;;;;;7.72;3.33;;;3.30;99.90;;;2.86;78.94;100526.41;4167835;28;20057;-73
2021/11/28 06:49:32;;;;;;;5.78;2.45;;;3.40;99.90;;;2.91;77.92;100519.91;4171364;28;20041;-73
2021/11/28 06:51:35;;;;;;;5.97;3.38;;;3.40;99.90;;;2.62;78.71;100523.81;4170186;28;20064;-73
2021/11/28 06:53:35;;;;;;;10.45;3.33;;;3.40;99.90;;;2.37;79.88;100514.31;4186527;28;20120;-73
2021/11/28 06:55:37;;;;;;;7.10;3.53;;;3.30;99.90;;;2.58;79.52;100523.19;4167329;28;20022;-73
2021/11/28 06:57:38;;;;;;;8.40;3.60;;;3.30;99.90;;;2.65;78.97;100519.22;4169993;28;20042;-73
2021/11/28 06:59:38;;;;;;;6.22;2.72;;;3.20;99.90;;;2.73;78.77;100508.22;4186575;28;20108;-73
2021/11/28 07:01:40;;;;;;;4.95;2.97;;;3.30;99.90;;;2.77;78.73;100522.72;4163040;28;20045;-73
2021/11/28 07:03:41;;;;;;;5.55;2.97;;;3.30;99.90;;;2.69;78.95;100527.63;4166138;28;20041;-73
2021/11/28 07:05:43;;;;;;;5.13;2.63;;;3.20;99.90;;;2.56;79.21;100511.25;4171161;28;20030;-73
2021/11/28 07:07:44;;;;;;;13.73;4.05;;;3.30;99.90;;;2.58;78.97;100517.16;4169748;28;20029;-73
2021/11/28 07:09:45;;;;;;;9.48;3.20;;;3.20;99.90;;;2.40;79.64;100529.72;4163036;28;20052;-73
2021/11/28 07:11:46;;;;;;;8.00;3.10;;;3.20;99.90;;;2.45;79.20;100521.59;4169732;28;20026;-73
2021/11/28 07:13:49;;;;;;;4.93;2.80;;;3.20;99.90;;;2.61;79.90;100532.56;4169659;28;20040;-73
2021/11/28 07:15:50;;;;;;;8.10;2.90;;;3.20;99.90;;;2.57;79.57;100531.94;4159958;28;20061;-73
2021/11/28 07:17:51;;;;;;;6.95;2.45;;;3.20;99.90;;;2.56;79.78;100525.09;4169662;28;20108;-73
2021/11/28 07:19:52;;;;;;;5.95;2.50;;;3.20;99.90;;;2.73;79.03;100534.28;4186183;28;20036;-73
2021/11/28 07:21:54;;;;;;;8.25;2.85;;;3.10;99.90;;;2.90;78.22;100528.66;4169396;28;20030;-73
2021/11/28 07:23:55;;;;;;;7.57;3.05;;;2.70;99.90;;;2.96;77.44;100543.84;4170792;28;20022;-73
2021/11/28 07:25:56;;;;;;;5.35;2.42;;;3.30;99.90;;;2.77;78.54;100544.38;4169345;28;20029;-73
2021/11/28 07:27:57;;;;;;;4.38;2.22;;;3.30;99.90;;;2.85;77.69;100542.97;4166407;28;20013;-73
2021/11/28 07:30:00;;;;;;;5.85;2.75;;;3.30;99.90;;;2.99;78.02;100543.63;4170523;28;20053;-73
2021/11/28 07:32:02;;;;;;;8.98;2.80;;;3.40;99.90;;;3.04;76.62;100562.38;4169423;28;20492;-73
2021/11/28 07:34:03;;;;;;;2.83;2.28;;;3.50;99.90;;;2.86;77.92;100555.91;4186000;28;20094;-73
2021/11/28 07:36:05;;;;;;;6.72;2.47;;;3.40;99.90;;;2.92;78.21;100557.22;4165894;28;20108;-73
2021/11/28 07:38:06;;;;;;;9.90;2.50;;;3.40;99.90;;;3.15;77.18;100562.41;4170219;28;20057;-73
2021/11/28 07:40:08;;;;;;;3.40;2.28;;;3.50;99.90;;;3.17;76.30;100559.66;4168942;28;20032;-73
2021/11/28 07:42:09;;;;;;;3.47;2.15;;;3.60;99.90;;;3.18;76.45;100575.22;4161331;28;20033;-73
2021/11/28 07:44:10;;;;;;;5.32;2.40;;;3.70;99.90;;;3.11;76.84;100565.34;4169148;28;20026;-73
2021/11/28 07:46:11;;;;;;;4.55;2.17;;;3.80;99.90;;;3.09;77.13;100569.84;4169008;28;20032;-73
2021/11/28 07:48:12;;;;;;;9.93;2.50;;;3.70;99.90;;;3.04;76.10;100564.97;4170420;28;20478;-73
2021/11/28 07:50:13;;;;;;;6.82;2.65;;;3.70;99.90;;;2.92;77.77;100568.47;4152601;28;20165;-73
2021/11/28 07:52:14;;;;;;;5.15;2.08;;;3.70;99.90;;;3.04;76.69;100578.00;4170343;28;20018;-73
2021/11/28 07:54:15;;;;;;;4.35;3.03;;;3.70;99.90;;;3.19;76.14;100587.31;4169984;28;20396;-73
2021/11/28 07:56:17;;;;;;;6.50;2.35;;;3.70;99.90;;;3.21;76.48;100598.44;4168814;28;20028;-73
2021/11/28 07:58:18;;;;;;;8.77;2.67;;;3.70;99.90;;;3.22;76.00;100587.09;4169024;28;20087;-73
2021/11/28 08:00:19;;;;;;;5.00;2.17;;;3.70;99.90;;;3.12;76.98;100586.09;4169037;28;20022;-73
2021/11/28 08:02:20;;;;;;;5.35;2.63;;;3.70;99.90;;;3.01;77.55;100591.25;4169860;28;20448;-73
2021/11/28 08:04:21;;;;;;;6.00;3.17;;;3.70;99.90;;;3.09;76.76;100594.13;4168868;28;20029;-73
2021/11/28 08:06:22;;;;;;;4.65;2.15;;;3.70;99.90;;;3.13;76.93;100600.78;4168671;28;20026;-73
2021/11/28 08:08:23;;;;;;;5.72;2.17;;;3.80;99.90;;;3.08;77.29;100594.22;4159342;28;20595;-73
2021/11/28 08:10:25;;;;;;;6.05;2.40;;;3.50;99.90;;;2.75;77.04;100590.50;4165974;28;20033;-73
2021/11/28 08:12:26;;;;;;;7.38;3.05;;;3.80;99.90;;;2.71;79.48;100590.88;4170105;28;20397;-73
2021/11/28 08:14:27;;;;;;;4.32;2.55;;;3.70;99.90;;;2.95;78.05;100604.72;4168800;28;20033;-73
2021/11/28 08:16:29;;;;;;;5.32;2.50;;;3.70;99.90;;;2.85;78.18;100597.66;4169995;28;20037;-73
2021/11/28 08:18:29;;;;;;;7.22;2.80;;;3.80;99.90;;;3.17;76.88;100598.75;4168662;28;20484;-73
2021/11/28 08:20:30;;;;;;;5.40;2.25;;;3.80;99.90;;;2.85;77.75;100592.47;4169949;28;20032;-73
2021/11/28 08:22:31;;;;;;;5.43;2.20;;;3.80;99.90;;;3.10;77.07;100603.63;4168089;28;20041;-73
2021/11/28 08:24:32;;;;;;;5.78;2.85;;;3.80;99.90;;;2.99;77.46;100606.16;4165075;28;20139;-73
2021/11/28 08:26:36;;;;;;;4.80;2.30;;;3.80;99.90;;;3.02;77.74;100600.72;4176126;28;20510;-73
2021/11/28 08:28:37;;;;;;;7.70;2.50;;;3.80;99.90;;;3.38;76.11;100602.41;4149121;28;20423;-73
2021/11/28 08:30:40;;;;;;;6.85;2.45;;;3.90;99.90;;;3.43;75.35;100604.69;4169237;28;20022;-73
2021/11/28 08:32:45;;;;;;;2.90;2.28;;;4.00;99.90;;;3.37;76.53;100607.75;4168101;28;20014;-73
2021/11/28 08:34:45;;;;;;;7.88;2.85;;;4.00;99.90;;;3.57;76.31;100610.53;4168574;28;20413;-73
2021/11/28 08:36:46;;;;;;;7.65;3.00;;;4.10;99.90;;;3.50;75.95;100601.50;4168215;28;20080;-73
2021/11/28 08:38:50;;;;;;;3.28;2.13;;;4.20;99.90;;;3.72;74.61;100598.94;4160807;28;20082;-73